createdAt,value
2023-02-22T00:00:27.347Z,95482
2023-02-22T00:01:36.211Z,95485
2023-02-22T00:02:45.723Z,95476
2023-02-22T00:03:54.347Z,95476
2023-02-22T00:05:04.000Z,95474
2023-02-22T00:06:13.654Z,95477
2023-02-22T00:07:22.311Z,95475
2023-02-22T00:08:31.006Z,95475
2023-02-22T00:09:40.642Z,95475
2023-02-22T00:10:49.295Z,95476
2023-02-22T00:11:58.963Z,95471
2023-02-22T00:13:07.673Z,95471
2023-02-22T00:14:16.335Z,95471
2023-02-22T00:15:26.012Z,95473
2023-02-22T00:16:33.709Z,95469
2023-02-22T00:17:43.362Z,95467
2023-02-22T00:18:53.041Z,95470
2023-02-22T00:20:00.698Z,95466
2023-02-22T00:21:09.394Z,95468
2023-02-22T00:22:18.052Z,95463
2023-02-22T00:23:26.761Z,95463
2023-02-22T00:24:36.548Z,95468
2023-02-22T00:25:46.183Z,95462
2023-02-22T00:26:54.836Z,95466
2023-02-22T00:28:04.507Z,95463
2023-02-22T00:29:13.183Z,95460
2023-02-22T00:30:21.874Z,95462
2023-02-22T00:31:31.563Z,95465
2023-02-22T00:32:40.216Z,95465
2023-02-22T00:33:49.870Z,95464
2023-02-22T00:34:57.519Z,95463
2023-02-22T00:36:06.143Z,95461
2023-02-22T00:37:15.802Z,95458
2023-02-22T00:38:23.495Z,95461
2023-02-22T00:39:32.144Z,95462
2023-02-22T00:40:40.831Z,95465
2023-02-22T00:41:49.496Z,95466
2023-02-22T00:42:59.156Z,95457
2023-02-22T00:44:06.868Z,95461
2023-02-22T00:45:15.501Z,95458
2023-02-22T00:46:25.170Z,95464
2023-02-22T00:47:33.847Z,95462
2023-02-22T00:48:42.523Z,95459
2023-02-22T00:49:52.239Z,95454
2023-02-22T00:50:59.877Z,95459
2023-02-22T00:52:09.565Z,95459
2023-02-22T00:53:18.219Z,95457
2023-02-22T00:54:26.897Z,95459
2023-02-22T00:55:35.611Z,95456
2023-02-22T00:56:44.306Z,95452
2023-02-22T00:57:53.940Z,95450
2023-02-22T00:59:02.657Z,95452
2023-02-22T01:00:12.313Z,95447
2023-02-22T01:01:22.001Z,95449
2023-02-22T01:02:31.669Z,95449
2023-02-22T01:03:40.306Z,95448
2023-02-22T01:04:49.997Z,95447
2023-02-22T01:05:58.698Z,95443
2023-02-22T01:07:08.322Z,95441
2023-02-22T01:08:17.026Z,95442
2023-02-22T01:09:26.670Z,95441
2023-02-22T01:10:36.362Z,95440
2023-02-22T01:11:46.023Z,95439
2023-02-22T01:12:54.696Z,95438
2023-02-22T01:14:04.363Z,95436
2023-02-22T01:15:12.053Z,95439
2023-02-22T01:16:20.737Z,95437
2023-02-22T01:17:29.449Z,95438
2023-02-22T01:18:38.112Z,95437
2023-02-22T01:19:47.893Z,95440
2023-02-22T01:20:56.558Z,95443
2023-02-22T01:22:06.251Z,95441
2023-02-22T01:23:13.904Z,95440
2023-02-22T01:24:23.617Z,95439
2023-02-22T01:25:33.319Z,95437
2023-02-22T01:26:41.975Z,95431
2023-02-22T01:27:50.653Z,95436
2023-02-22T01:28:59.359Z,95435
2023-02-22T01:30:09.048Z,95433
2023-02-22T01:31:19.077Z,95433
2023-02-22T01:32:27.346Z,95432
2023-02-22T01:33:36.007Z,95430
2023-02-22T01:34:45.689Z,95434
2023-02-22T01:35:54.365Z,95434
2023-02-22T01:37:03.088Z,95440
2023-02-22T01:38:11.739Z,95434
2023-02-22T01:39:21.414Z,95430
2023-02-22T01:40:31.110Z,95434
2023-02-22T01:41:38.767Z,95431
2023-02-22T01:42:47.418Z,95427
2023-02-22T01:43:57.088Z,95429
2023-02-22T01:45:05.855Z,95427
2023-02-22T01:46:14.475Z,95426
2023-02-22T01:47:23.099Z,95425
2023-02-22T01:48:31.749Z,95425
2023-02-22T01:49:41.442Z,95427
2023-02-22T01:50:49.119Z,95431
2023-02-22T01:51:57.779Z,95430
2023-02-22T01:53:07.486Z,95427
2023-02-22T01:54:16.175Z,95424
2023-02-22T01:55:25.801Z,95423
2023-02-22T01:56:34.461Z,95422
2023-02-22T01:57:43.100Z,95420
2023-02-22T01:58:52.771Z,95417
2023-02-22T02:00:01.443Z,95419
2023-02-22T02:01:10.156Z,95417
2023-02-22T02:02:19.806Z,95418
2023-02-22T02:03:27.514Z,95419
2023-02-22T02:04:36.121Z,95413
2023-02-22T02:05:45.802Z,95416
2023-02-22T02:06:55.450Z,95412
2023-02-22T02:08:05.122Z,95411
2023-02-22T02:09:12.780Z,95411
2023-02-22T02:10:21.525Z,95411
2023-02-22T02:11:31.176Z,95411
2023-02-22T02:12:40.844Z,95404
2023-02-22T02:13:49.504Z,95399
2023-02-22T02:14:58.205Z,95400
2023-02-22T02:16:07.850Z,95401
2023-02-22T02:17:17.534Z,95403
2023-02-22T02:18:27.169Z,95397
2023-02-22T02:19:36.824Z,95396
2023-02-22T02:20:46.507Z,95394
2023-02-22T02:21:54.144Z,95388
2023-02-22T02:23:03.804Z,95388
2023-02-22T02:24:13.462Z,95391
2023-02-22T02:25:22.130Z,95390
2023-02-22T02:26:31.777Z,95389
2023-02-22T02:27:40.431Z,95386
2023-02-22T02:28:50.104Z,95387
2023-02-22T02:29:59.792Z,95388
2023-02-22T02:31:08.439Z,95387
2023-02-22T02:32:17.237Z,95389
2023-02-22T02:33:25.899Z,95384
2023-02-22T02:34:35.564Z,95381
2023-02-22T02:35:45.251Z,95379
2023-02-22T02:36:52.923Z,95380
2023-02-22T02:38:01.580Z,95374
2023-02-22T02:39:11.240Z,95375
2023-02-22T02:40:18.979Z,95373
2023-02-22T02:41:27.614Z,95371
2023-02-22T02:42:37.265Z,95369
2023-02-22T02:43:45.945Z,95372
2023-02-22T02:44:55.981Z,95364
2023-02-22T02:46:05.262Z,95364
2023-02-22T02:47:15.002Z,95364
2023-02-22T02:48:23.594Z,95363
2023-02-22T02:49:32.271Z,95367
2023-02-22T02:50:41.970Z,95368
2023-02-22T02:51:50.608Z,95365
2023-02-22T02:53:00.284Z,95363
2023-02-22T02:54:09.955Z,95364
2023-02-22T02:55:18.660Z,95366
2023-02-22T02:56:27.367Z,95365
2023-02-22T02:57:37.012Z,95364
2023-02-22T02:58:44.684Z,95358
2023-02-22T02:59:54.339Z,95364
2023-02-22T03:01:03.988Z,95359
2023-02-22T03:02:12.655Z,95361
2023-02-22T03:03:22.305Z,95356
2023-02-22T03:04:31.002Z,95354
2023-02-22T03:05:39.686Z,95355
2023-02-22T03:06:49.380Z,95352
2023-02-22T03:07:57.038Z,95352
2023-02-22T03:09:05.708Z,95346
2023-02-22T03:10:14.358Z,95346
2023-02-22T03:11:23.100Z,95341
2023-02-22T03:12:31.737Z,95339
2023-02-22T03:13:39.417Z,95336
2023-02-22T03:14:48.090Z,95338
2023-02-22T03:15:57.805Z,95337
2023-02-22T03:17:05.449Z,95338
2023-02-22T03:18:14.123Z,95337
2023-02-22T03:19:21.782Z,95342
2023-02-22T03:20:31.489Z,95345
2023-02-22T03:21:41.255Z,95339
2023-02-22T03:22:50.835Z,95341
2023-02-22T03:24:00.494Z,95339
2023-02-22T03:25:08.172Z,95340
2023-02-22T03:26:16.952Z,95341
2023-02-22T03:27:26.610Z,95336
2023-02-22T03:28:35.266Z,95335
2023-02-22T03:29:44.938Z,95333
2023-02-22T03:30:54.636Z,95334
2023-02-22T03:32:03.310Z,95334
2023-02-22T03:33:12.932Z,95332
2023-02-22T03:34:22.613Z,95332
2023-02-22T03:35:32.276Z,95335
2023-02-22T03:36:41.953Z,95333
2023-02-22T03:37:50.673Z,95338
2023-02-22T03:39:00.323Z,95332
2023-02-22T03:40:08.011Z,95339
2023-02-22T03:41:16.978Z,95340
2023-02-22T03:42:25.363Z,95343
2023-02-22T03:43:34.014Z,95344
2023-02-22T03:44:43.719Z,95341
2023-02-22T03:45:51.386Z,95345
2023-02-22T03:47:00.031Z,95345
2023-02-22T03:48:09.679Z,95348
2023-02-22T03:49:17.336Z,95348
2023-02-22T03:50:26.033Z,95348
2023-02-22T03:51:35.748Z,95352
2023-02-22T03:52:44.423Z,95353
2023-02-22T03:53:54.117Z,95355
2023-02-22T03:55:03.749Z,95355
2023-02-22T03:56:13.528Z,95357
2023-02-22T03:57:23.189Z,95352
2023-02-22T03:58:30.843Z,95358
2023-02-22T03:59:40.528Z,95360
2023-02-22T04:00:49.177Z,95358
2023-02-22T04:01:57.856Z,95366
2023-02-22T04:03:07.593Z,95368
2023-02-22T04:04:16.254Z,95360
2023-02-22T04:05:24.914Z,95363
2023-02-22T04:06:34.589Z,95364
2023-02-22T04:07:42.242Z,95360
2023-02-22T04:08:51.888Z,95362
2023-02-22T04:10:01.572Z,95361
2023-02-22T04:11:11.241Z,95364
2023-02-22T04:12:20.915Z,95364
2023-02-22T04:13:29.585Z,95363
2023-02-22T04:14:38.213Z,95359
2023-02-22T04:15:47.906Z,95358
2023-02-22T04:16:57.553Z,95362
2023-02-22T04:18:07.263Z,95358
2023-02-22T04:19:15.909Z,95357
2023-02-22T04:20:24.557Z,95355
2023-02-22T04:21:34.257Z,95355
2023-02-22T04:22:43.909Z,95352
2023-02-22T04:23:53.581Z,95354
2023-02-22T04:25:03.251Z,95352
2023-02-22T04:26:11.925Z,95350
2023-02-22T04:27:20.591Z,95346
2023-02-22T04:28:29.246Z,95343
2023-02-22T04:29:38.905Z,95344
2023-02-22T04:30:47.575Z,95341
2023-02-22T04:31:55.322Z,95339
2023-02-22T04:33:03.906Z,95336
2023-02-22T04:34:13.557Z,95337
2023-02-22T04:35:22.241Z,95339
2023-02-22T04:36:31.955Z,95337
2023-02-22T04:37:40.629Z,95340
2023-02-22T04:38:50.325Z,95339
2023-02-22T04:39:59.982Z,95335
2023-02-22T04:41:07.658Z,95336
2023-02-22T04:42:16.370Z,95337
2023-02-22T04:43:26.045Z,95334
2023-02-22T04:44:35.697Z,95333
2023-02-22T04:45:45.361Z,95328
2023-02-22T04:46:54.020Z,95328
2023-02-22T04:48:03.687Z,95329
2023-02-22T04:49:13.372Z,95327
2023-02-22T04:50:21.036Z,95326
2023-02-22T04:51:29.701Z,95328
2023-02-22T04:52:39.374Z,95325
2023-02-22T04:53:48.070Z,95324
2023-02-22T04:54:57.747Z,95321
2023-02-22T04:56:06.425Z,95322
2023-02-22T04:57:15.067Z,95327
2023-02-22T04:58:25.753Z,95325
2023-02-22T04:59:35.422Z,95329
2023-02-22T05:00:44.071Z,95327
2023-02-22T05:01:53.810Z,95328
2023-02-22T05:03:02.479Z,95326
2023-02-22T05:04:12.187Z,95327
2023-02-22T05:05:20.899Z,95329
2023-02-22T05:06:30.573Z,95330
2023-02-22T05:07:40.224Z,95332
2023-02-22T05:08:48.888Z,95325
2023-02-22T05:09:58.566Z,95332
2023-02-22T05:11:08.220Z,95329
2023-02-22T05:12:16.873Z,95331
2023-02-22T05:13:25.535Z,95327
2023-02-22T05:14:34.343Z,95323
2023-02-22T05:15:44.054Z,95320
2023-02-22T05:16:53.667Z,95320
2023-02-22T05:18:02.338Z,95325
2023-02-22T05:19:12.022Z,95320
2023-02-22T05:20:19.879Z,95320
2023-02-22T05:21:29.458Z,95320
2023-02-22T05:22:39.100Z,95322
2023-02-22T05:23:47.770Z,95322
2023-02-22T05:24:56.490Z,95315
2023-02-22T05:26:05.154Z,95321
2023-02-22T05:27:14.828Z,95314
2023-02-22T05:28:24.499Z,95319
2023-02-22T05:29:33.265Z,95319
2023-02-22T05:30:42.992Z,95321
2023-02-22T05:31:52.643Z,95318
2023-02-22T05:33:01.292Z,95320
2023-02-22T05:34:10.002Z,95317
2023-02-22T05:35:18.698Z,95318
2023-02-22T05:36:27.395Z,95313
2023-02-22T05:37:37.131Z,95313
2023-02-22T05:38:45.788Z,95312
2023-02-22T05:39:54.487Z,95308
2023-02-22T05:41:04.182Z,95309
2023-02-22T05:42:11.854Z,95309
2023-02-22T05:43:21.708Z,95310
2023-02-22T05:44:30.351Z,95312
2023-02-22T05:45:40.010Z,95310
2023-02-22T05:46:49.755Z,95306
2023-02-22T05:47:59.378Z,95305
2023-02-22T05:49:09.894Z,95306
2023-02-22T05:50:22.849Z,95308
2023-02-22T05:51:34.274Z,95308
2023-02-22T05:52:45.964Z,95306
2023-02-22T05:53:56.382Z,95309
2023-02-22T05:55:06.045Z,95303
2023-02-22T05:56:15.689Z,95307
2023-02-22T05:57:24.355Z,95309
2023-02-22T05:58:33.027Z,95308
2023-02-22T05:59:42.695Z,95308
2023-02-22T06:00:50.355Z,95305
2023-02-22T06:01:59.095Z,95305
2023-02-22T06:03:08.798Z,95304
2023-02-22T06:04:17.457Z,95303
2023-02-22T06:05:27.211Z,95302
2023-02-22T06:06:36.800Z,95299
2023-02-22T06:07:46.518Z,95302
2023-02-22T06:08:56.182Z,95300
2023-02-22T06:10:04.828Z,95300
2023-02-22T06:11:14.619Z,95303
2023-02-22T06:12:23.132Z,95307
2023-02-22T06:13:31.815Z,95310
2023-02-22T06:14:41.486Z,95311
2023-02-22T06:15:50.150Z,95305
2023-02-22T06:16:58.822Z,95306
2023-02-22T06:18:08.661Z,95307
2023-02-22T06:19:18.306Z,95309
2023-02-22T06:20:27.999Z,95304
2023-02-22T06:21:37.655Z,95312
2023-02-22T06:22:46.355Z,95311
2023-02-22T06:23:56.036Z,95309
2023-02-22T06:25:03.733Z,95310
2023-02-22T06:26:12.384Z,95307
2023-02-22T06:27:22.051Z,95310
2023-02-22T06:28:29.754Z,95308
2023-02-22T06:29:39.403Z,95310
2023-02-22T06:30:48.060Z,95312
2023-02-22T06:31:56.769Z,95311
2023-02-22T06:33:06.387Z,95312
2023-02-22T06:34:15.110Z,95314
2023-02-22T06:35:23.722Z,95315
2023-02-22T06:36:33.064Z,95310
2023-02-22T06:37:40.833Z,95312
2023-02-22T06:38:49.541Z,95314
2023-02-22T06:39:59.197Z,95316
2023-02-22T06:41:06.826Z,95321
2023-02-22T06:42:16.624Z,95321
2023-02-22T06:43:24.268Z,95318
2023-02-22T06:44:33.924Z,95326
2023-02-22T06:45:43.655Z,95323
2023-02-22T06:46:51.296Z,95323
2023-02-22T06:48:00.957Z,95322
2023-02-22T06:49:10.631Z,95322
2023-02-22T06:50:19.378Z,95329
2023-02-22T06:51:28.022Z,95328
2023-02-22T06:52:35.684Z,95327
2023-02-22T06:53:43.399Z,95330
2023-02-22T06:54:53.074Z,95332
2023-02-22T06:56:00.733Z,95330
2023-02-22T06:57:09.407Z,95330
2023-02-22T06:58:19.073Z,95334
2023-02-22T06:59:27.742Z,95337
2023-02-22T07:00:37.423Z,95336
2023-02-22T07:01:46.074Z,95335
2023-02-22T07:02:55.747Z,95341
2023-02-22T07:04:05.465Z,95338
2023-02-22T07:05:14.129Z,95337
2023-02-22T07:06:22.831Z,95339
2023-02-22T07:07:32.475Z,95340
2023-02-22T07:08:42.139Z,95345
2023-02-22T07:09:51.858Z,95348
2023-02-22T07:11:00.556Z,95343
2023-02-22T07:12:10.220Z,95347
2023-02-22T07:13:19.892Z,95344
2023-02-22T07:14:29.598Z,95340
2023-02-22T07:15:39.265Z,95338
2023-02-22T07:16:46.918Z,95342
2023-02-22T07:17:56.577Z,95338
2023-02-22T07:19:06.259Z,95342
2023-02-22T07:20:14.913Z,95336
2023-02-22T07:21:24.579Z,95343
2023-02-22T07:22:34.214Z,95345
2023-02-22T07:23:42.867Z,95341
2023-02-22T07:24:52.525Z,95345
2023-02-22T07:26:01.199Z,95341
2023-02-22T07:27:08.844Z,95340
2023-02-22T07:28:17.536Z,95344
2023-02-22T07:29:26.238Z,95340
2023-02-22T07:30:35.920Z,95346
2023-02-22T07:31:44.569Z,95350
2023-02-22T07:32:54.339Z,95339
2023-02-22T07:34:03.923Z,95336
2023-02-22T07:35:11.601Z,95341
2023-02-22T07:36:20.273Z,95339
2023-02-22T07:37:28.991Z,95336
2023-02-22T07:38:38.644Z,95334
2023-02-22T07:39:48.360Z,95333
2023-02-22T07:40:57.027Z,95336
2023-02-22T07:42:05.680Z,95336
2023-02-22T07:43:15.416Z,95334
2023-02-22T07:44:24.119Z,95334
2023-02-22T07:45:32.848Z,95332
2023-02-22T07:46:41.456Z,95328
2023-02-22T07:47:50.125Z,95330
2023-02-22T07:48:59.799Z,95325
2023-02-22T07:50:07.506Z,95327
2023-02-22T07:51:16.521Z,95323
2023-02-22T07:52:25.849Z,95319
2023-02-22T07:53:34.542Z,95322
2023-02-22T07:54:43.198Z,95323
2023-02-22T07:55:52.898Z,95323
2023-02-22T07:57:01.558Z,95316
2023-02-22T07:58:11.255Z,95318
2023-02-22T07:59:19.912Z,95316
2023-02-22T08:00:28.598Z,95317
2023-02-22T08:01:38.268Z,95319
2023-02-22T08:02:47.024Z,95318
2023-02-22T08:03:55.642Z,95316
2023-02-22T08:05:04.281Z,95311
2023-02-22T08:06:12.956Z,95312
2023-02-22T08:07:22.603Z,95316
2023-02-22T08:08:31.265Z,95318
2023-02-22T08:09:40.041Z,95316
2023-02-22T08:10:49.683Z,95316
2023-02-22T08:11:57.388Z,95320
2023-02-22T08:13:06.054Z,95319
2023-02-22T08:14:14.728Z,95316
2023-02-22T08:15:24.503Z,95316
2023-02-22T08:16:34.224Z,95312
2023-02-22T08:17:41.893Z,95317
2023-02-22T08:18:50.556Z,95316
2023-02-22T08:20:00.261Z,95310
2023-02-22T08:21:09.925Z,95309
2023-02-22T08:22:19.714Z,95311
2023-02-22T08:23:29.249Z,95311
2023-02-22T08:24:38.917Z,95310
2023-02-22T08:25:48.627Z,95307
2023-02-22T08:26:57.272Z,95308
2023-02-22T08:28:05.942Z,95306
2023-02-22T08:29:15.646Z,95308
2023-02-22T08:30:24.442Z,95314
2023-02-22T08:31:34.160Z,95309
2023-02-22T08:32:42.857Z,95300
2023-02-22T08:33:52.413Z,95301
2023-02-22T08:35:02.125Z,95299
2023-02-22T08:36:10.863Z,95298
2023-02-22T08:37:20.541Z,95298
2023-02-22T08:38:30.259Z,95298
2023-02-22T08:39:38.938Z,95298
2023-02-22T08:40:47.612Z,95299
2023-02-22T08:41:56.331Z,95298
2023-02-22T08:43:05.964Z,95297
2023-02-22T08:44:15.647Z,95301
2023-02-22T08:45:23.329Z,95297
2023-02-22T08:46:32.016Z,95298
2023-02-22T08:47:41.678Z,95302
2023-02-22T08:48:50.342Z,95295
2023-02-22T08:49:59.075Z,95295
2023-02-22T08:51:07.783Z,95296
2023-02-22T08:52:17.479Z,95295
2023-02-22T08:53:27.130Z,95294
2023-02-22T08:54:34.804Z,95294
2023-02-22T08:55:44.516Z,95294
2023-02-22T08:56:54.133Z,95297
2023-02-22T08:58:03.857Z,95292
2023-02-22T08:59:12.450Z,95293
2023-02-22T09:00:21.148Z,95294
2023-02-22T09:01:33.299Z,95297
2023-02-22T09:02:39.477Z,95290
2023-02-22T09:03:48.176Z,95291
2023-02-22T09:04:56.833Z,95290
2023-02-22T09:06:06.597Z,95287
2023-02-22T09:07:15.172Z,95285
2023-02-22T09:08:23.852Z,95288
2023-02-22T09:09:32.524Z,95286
2023-02-22T09:10:42.212Z,95289
2023-02-22T09:11:53.159Z,95288
2023-02-22T09:13:00.607Z,95285
2023-02-22T09:14:10.223Z,95289
2023-02-22T09:15:19.897Z,95287
2023-02-22T09:16:28.638Z,95288
2023-02-22T09:17:38.281Z,95291
2023-02-22T09:18:45.967Z,95286
2023-02-22T09:19:54.625Z,95279
2023-02-22T09:21:03.292Z,95280
2023-02-22T09:22:11.990Z,95286
2023-02-22T09:23:21.596Z,95285
2023-02-22T09:24:29.299Z,95284
2023-02-22T09:25:38.957Z,95281
2023-02-22T09:26:48.619Z,95281
2023-02-22T09:27:58.288Z,95284
2023-02-22T09:29:06.944Z,95283
2023-02-22T09:30:15.728Z,95282
2023-02-22T09:31:25.454Z,95286
2023-02-22T09:32:35.134Z,95279
2023-02-22T09:33:44.632Z,95280
2023-02-22T09:34:52.346Z,95282
2023-02-22T09:36:02.017Z,95281
2023-02-22T09:37:09.737Z,95281
2023-02-22T09:38:18.399Z,95281
2023-02-22T09:39:28.093Z,95281
2023-02-22T09:40:36.761Z,95279
2023-02-22T09:41:46.436Z,95278
2023-02-22T09:42:54.098Z,95278
2023-02-22T09:44:03.885Z,95273
2023-02-22T09:45:13.585Z,95278
2023-02-22T09:46:21.443Z,95272
2023-02-22T09:47:30.034Z,95272
2023-02-22T09:48:38.670Z,95271
2023-02-22T09:49:47.341Z,95273
2023-02-22T09:50:57.135Z,95273
2023-02-22T09:52:05.798Z,95270
2023-02-22T09:53:14.460Z,95271
2023-02-22T09:54:24.123Z,95272
2023-02-22T09:55:32.806Z,95270
2023-02-22T09:56:42.488Z,95269
2023-02-22T09:57:51.160Z,95273
2023-02-22T09:58:59.841Z,95267
2023-02-22T10:00:09.520Z,95266
2023-02-22T10:01:17.267Z,95266
2023-02-22T10:02:26.976Z,95268
2023-02-22T10:03:36.622Z,95265
2023-02-22T10:04:45.273Z,95264
2023-02-22T10:05:55.007Z,95263
2023-02-22T10:07:03.676Z,95264
2023-02-22T10:08:13.350Z,95259
2023-02-22T10:09:23.032Z,95260
2023-02-22T10:10:29.693Z,95259
2023-02-22T10:11:38.371Z,95257
2023-02-22T10:12:48.321Z,95261
2023-02-22T10:13:57.028Z,95256
2023-02-22T10:15:05.686Z,95258
2023-02-22T10:16:15.752Z,95255
2023-02-22T10:17:24.063Z,95252
2023-02-22T10:18:33.765Z,95255
2023-02-22T10:19:43.431Z,95252
2023-02-22T10:20:52.067Z,95251
2023-02-22T10:22:00.749Z,95253
2023-02-22T10:23:09.412Z,95251
2023-02-22T10:24:18.069Z,95253
2023-02-22T10:25:26.775Z,95250
2023-02-22T10:26:35.448Z,95243
2023-02-22T10:27:45.154Z,95248
2023-02-22T10:28:52.860Z,95244
2023-02-22T10:30:05.560Z,95245
2023-02-22T10:31:13.320Z,95242
2023-02-22T10:32:22.031Z,95247
2023-02-22T10:33:31.647Z,95247
2023-02-22T10:34:40.343Z,95240
2023-02-22T10:35:49.956Z,95240
2023-02-22T10:36:59.657Z,95240
2023-02-22T10:38:09.361Z,95235
2023-02-22T10:39:19.068Z,95237
2023-02-22T10:40:28.656Z,95240
2023-02-22T10:41:37.362Z,95241
2023-02-22T10:42:46.059Z,95232
2023-02-22T10:43:54.772Z,95236
2023-02-22T10:45:03.478Z,95232
2023-02-22T10:46:13.192Z,95233
2023-02-22T10:47:22.830Z,95233
2023-02-22T10:48:31.489Z,95235
2023-02-22T10:49:41.192Z,95233
2023-02-22T10:50:48.866Z,95236
2023-02-22T10:51:57.517Z,95230
2023-02-22T10:53:06.239Z,95228
2023-02-22T10:54:15.901Z,95226
2023-02-22T10:55:25.607Z,95230
2023-02-22T10:56:33.293Z,95230
2023-02-22T10:57:41.968Z,95231
2023-02-22T10:58:51.635Z,95228
2023-02-22T11:00:00.308Z,95230
2023-02-22T11:01:09.029Z,95229
2023-02-22T11:02:18.818Z,95229
2023-02-22T11:03:28.504Z,95229
2023-02-22T11:04:38.190Z,95226
2023-02-22T11:05:45.906Z,95222
2023-02-22T11:06:55.530Z,95223
2023-02-22T11:08:05.325Z,95218
2023-02-22T11:09:15.022Z,95220
2023-02-22T11:10:24.677Z,95219
2023-02-22T11:11:33.325Z,95216
2023-02-22T11:12:42.048Z,95214
2023-02-22T11:13:50.721Z,95213
2023-02-22T11:15:00.377Z,95217
2023-02-22T11:16:10.071Z,95214
2023-02-22T11:17:18.755Z,95213
2023-02-22T11:18:28.435Z,95211
2023-02-22T11:19:38.137Z,95209
2023-02-22T11:20:46.836Z,95205
2023-02-22T11:21:55.521Z,95204
2023-02-22T11:23:04.226Z,95196
2023-02-22T11:24:13.868Z,95198
2023-02-22T11:25:20.302Z,95198
2023-02-22T11:26:27.965Z,95192
2023-02-22T11:27:36.659Z,95194
2023-02-22T11:28:46.383Z,95193
2023-02-22T11:29:54.045Z,95191
2023-02-22T11:31:03.862Z,95188
2023-02-22T11:32:12.460Z,95193
2023-02-22T11:33:22.095Z,95182
2023-02-22T11:34:31.758Z,95186
2023-02-22T11:35:39.400Z,95187
2023-02-22T11:36:49.071Z,95185
2023-02-22T11:37:58.777Z,95183
2023-02-22T11:39:06.510Z,95183
2023-02-22T11:40:15.186Z,95179
2023-02-22T11:41:24.826Z,95179
2023-02-22T11:42:34.551Z,95173
2023-02-22T11:43:44.257Z,95176
2023-02-22T11:44:51.930Z,95170
2023-02-22T11:46:02.220Z,95174
2023-02-22T11:47:11.255Z,95172
2023-02-22T11:48:19.949Z,95165
2023-02-22T11:49:28.635Z,95168
2023-02-22T11:50:37.329Z,95164
2023-02-22T11:51:46.988Z,95165
2023-02-22T11:52:56.686Z,95162
2023-02-22T11:54:05.410Z,95164
2023-02-22T11:55:15.108Z,95164
2023-02-22T11:56:37.118Z,95163
2023-02-22T11:57:36.419Z,95162
2023-02-22T11:58:45.070Z,95161
2023-02-22T11:59:54.730Z,95162
2023-02-22T12:01:03.410Z,95167
2023-02-22T12:02:13.073Z,95162
2023-02-22T12:03:21.787Z,95158
2023-02-22T12:04:31.529Z,95159
2023-02-22T12:05:41.081Z,95161
2023-02-22T12:06:49.763Z,95162
2023-02-22T12:08:00.066Z,95156
2023-02-22T12:09:09.081Z,95163
2023-02-22T12:10:17.810Z,95158
2023-02-22T12:11:27.428Z,95157
2023-02-22T12:12:36.092Z,95158
2023-02-22T12:13:44.773Z,95155
2023-02-22T12:14:55.404Z,95152
2023-02-22T12:16:04.171Z,95157
2023-02-22T12:17:12.789Z,95152
2023-02-22T12:18:21.555Z,95150
2023-02-22T12:19:31.229Z,95148
2023-02-22T12:20:39.913Z,95147
2023-02-22T12:21:49.538Z,95147
2023-02-22T12:22:58.222Z,95147
2023-02-22T12:24:07.912Z,95143
2023-02-22T12:25:16.578Z,95144
2023-02-22T12:26:25.244Z,95144
2023-02-22T12:27:34.961Z,95140
2023-02-22T12:28:43.698Z,95140
2023-02-22T12:29:53.285Z,95137
2023-02-22T12:31:01.997Z,95141
2023-02-22T12:32:10.728Z,95137
2023-02-22T12:33:20.353Z,95132
2023-02-22T12:34:30.099Z,95131
2023-02-22T12:35:38.692Z,95134
2023-02-22T12:36:47.366Z,95132
2023-02-22T12:37:56.052Z,95136
2023-02-22T12:39:07.367Z,95136
2023-02-22T12:40:14.431Z,95136
2023-02-22T12:41:23.077Z,95138
2023-02-22T12:42:32.778Z,95134
2023-02-22T12:43:42.459Z,95129
2023-02-22T12:44:51.123Z,95126
2023-02-22T12:45:59.809Z,95129
2023-02-22T12:47:08.445Z,95130
2023-02-22T12:48:18.121Z,95127
2023-02-22T12:49:27.826Z,95128
2023-02-22T12:50:36.512Z,95127
2023-02-22T12:51:46.227Z,95124
2023-02-22T12:52:53.870Z,95123
2023-02-22T12:54:03.572Z,95118
2023-02-22T12:55:12.237Z,95121
2023-02-22T12:56:21.945Z,95124
2023-02-22T12:57:31.592Z,95120
2023-02-22T12:58:40.348Z,95116
2023-02-22T12:59:48.980Z,95112
2023-02-22T13:00:58.706Z,95120
2023-02-22T13:02:09.372Z,95117
2023-02-22T13:03:18.121Z,95117
2023-02-22T13:04:26.846Z,95116
2023-02-22T13:05:36.539Z,95113
2023-02-22T13:06:46.186Z,95112
2023-02-22T13:07:56.824Z,95108
2023-02-22T13:09:05.570Z,95109
2023-02-22T13:10:14.276Z,95109
2023-02-22T13:11:23.933Z,95111
2023-02-22T13:12:33.609Z,95107
2023-02-22T13:13:41.289Z,95103
2023-02-22T13:14:50.037Z,95107
2023-02-22T13:15:59.658Z,95108
2023-02-22T13:17:08.304Z,95105
2023-02-22T13:18:17.985Z,95104
2023-02-22T13:19:26.674Z,95104
2023-02-22T13:20:35.334Z,95100
2023-02-22T13:21:45.003Z,95099
2023-02-22T13:22:52.670Z,95104
2023-02-22T13:24:01.366Z,95099
2023-02-22T13:25:10.123Z,95098
2023-02-22T13:26:18.754Z,95096
2023-02-22T13:27:28.440Z,95096
2023-02-22T13:28:37.103Z,95093
2023-02-22T13:29:45.800Z,95092
2023-02-22T13:30:55.643Z,95094
2023-02-22T13:32:05.203Z,95091
2023-02-22T13:33:14.838Z,95096
2023-02-22T13:34:24.537Z,95092
2023-02-22T13:35:34.233Z,95097
2023-02-22T13:36:42.957Z,95090
2023-02-22T13:37:51.636Z,95084
2023-02-22T13:39:01.380Z,95088
2023-02-22T13:40:11.092Z,95084
2023-02-22T13:41:19.752Z,95086
2023-02-22T13:42:29.405Z,95089
2023-02-22T13:43:38.119Z,95081
2023-02-22T13:44:47.796Z,95074
2023-02-22T13:45:57.504Z,95081
2023-02-22T13:47:07.383Z,95086
2023-02-22T13:48:15.940Z,95084
2023-02-22T13:49:25.784Z,95083
2023-02-22T13:50:34.329Z,95083
2023-02-22T13:51:42.990Z,95083
2023-02-22T13:52:52.658Z,95079
2023-02-22T13:54:02.301Z,95082
2023-02-22T13:55:11.999Z,95081
2023-02-22T13:56:20.662Z,95077
2023-02-22T13:57:30.312Z,95076
2023-02-22T13:58:40.004Z,95077
2023-02-22T13:59:48.675Z,95081
2023-02-22T14:00:57.332Z,95080
2023-02-22T14:02:06.095Z,95080
2023-02-22T14:03:14.833Z,95074
2023-02-22T14:04:24.493Z,95079
2023-02-22T14:05:33.242Z,95079
2023-02-22T14:06:41.901Z,95076
2023-02-22T14:07:51.578Z,95074
2023-02-22T14:08:59.309Z,95074
2023-02-22T14:10:08.051Z,95070
2023-02-22T14:11:16.794Z,95073
2023-02-22T14:12:26.507Z,95074
2023-02-22T14:13:36.157Z,95073
2023-02-22T14:14:43.877Z,95069
2023-02-22T14:15:53.570Z,95073
2023-02-22T14:17:04.220Z,95069
2023-02-22T14:18:11.880Z,95072
2023-02-22T14:19:21.615Z,95080
2023-02-22T14:20:31.300Z,95069
2023-02-22T14:21:39.936Z,95076
2023-02-22T14:22:49.675Z,95074
2023-02-22T14:23:58.266Z,95072
2023-02-22T14:25:07.740Z,95074
2023-02-22T14:26:17.918Z,95077
2023-02-22T14:27:26.237Z,95076
2023-02-22T14:28:36.903Z,95076
2023-02-22T14:29:46.475Z,95072
2023-02-22T14:30:56.197Z,95075
2023-02-22T14:32:05.918Z,95073
2023-02-22T14:33:13.484Z,95074
2023-02-22T14:34:22.149Z,95072
2023-02-22T14:35:41.338Z,95074
2023-02-22T14:36:42.513Z,95072
2023-02-22T14:37:51.192Z,95076
2023-02-22T14:38:59.857Z,95079
2023-02-22T14:40:09.508Z,95077
2023-02-22T14:41:19.226Z,95077
2023-02-22T14:42:27.957Z,95075
2023-02-22T14:43:37.522Z,95074
2023-02-22T14:44:47.212Z,95076
2023-02-22T14:45:56.004Z,95071
2023-02-22T14:47:04.606Z,95073
2023-02-22T14:48:13.571Z,95070
2023-02-22T14:49:22.931Z,95069